Time;durP1;ratioP1;P1;durP2;ratioP2;P2;SDS_P1;SDS_P2;PMS_P1;PMS_P2;Temp;Humidity;BMP_temperature;BMP_pressure;BME280_temperature;BME280_humidity;BME280_pressure;Samples;Min_cycle;Max_cycle;Signal;HPM_P1;HPM_P2
2022/11/30 00:00:07;;;;;;;58.58;34.15;;;4.90;99.90;;;;;;2058095;28;20119;-67
2022/11/30 00:01:23;;;;;;;56.38;32.85;;;4.90;99.90;;;;;;2057323;28;20804;-67
2022/11/30 00:02:24;;;;;;;57.83;33.17;;;4.90;99.90;;;;;;2056835;28;20559;-67
2022/11/30 00:03:25;;;;;;;57.40;33.15;;;4.90;99.90;;;;;;2054293;28;20031;-67
2022/11/30 00:04:26;;;;;;;58.28;33.70;;;4.90;99.90;;;;;;2054102;28;20122;-67
2022/11/30 00:05:27;;;;;;;59.17;33.55;;;4.90;99.90;;;;;;2054568;28;20102;-67
2022/11/30 00:06:27;;;;;;;58.17;33.50;;;4.90;99.90;;;;;;2055179;28;20389;-67
2022/11/30 00:07:28;;;;;;;59.63;34.60;;;4.90;99.90;;;;;;2055140;28;20134;-67
2022/11/30 00:08:29;;;;;;;57.65;32.47;;;4.90;99.90;;;;;;2055153;28;20034;-67
2022/11/30 00:09:29;;;;;;;58.10;33.90;;;4.90;99.90;;;;;;2055142;28;20033;-67
2022/11/30 00:10:30;;;;;;;60.38;34.35;;;4.90;99.90;;;;;;2055188;28;20030;-68
2022/11/30 00:11:31;;;;;;;56.97;33.05;;;4.90;99.90;;;;;;2054991;28;20023;-68
2022/11/30 00:12:33;;;;;;;58.40;33.08;;;4.90;99.90;;;;;;2055266;28;20038;-67
2022/11/30 00:13:33;;;;;;;57.45;33.00;;;4.90;99.90;;;;;;2055148;28;20086;-68
2022/11/30 00:14:34;;;;;;;56.85;33.38;;;4.90;99.90;;;;;;2064138;28;20432;-68
2022/11/30 00:15:36;;;;;;;54.47;32.47;;;4.90;99.90;;;;;;2064264;28;20205;-67
2022/11/30 00:16:36;;;;;;;51.95;31.25;;;4.90;99.90;;;;;;2056922;28;20080;-68
2022/11/30 00:17:37;;;;;;;56.47;32.45;;;4.90;99.90;;;;;;2056790;28;20489;-67
2022/11/30 00:18:38;;;;;;;54.55;31.85;;;4.90;99.90;;;;;;2056657;28;20034;-67
2022/11/30 00:19:38;;;;;;;53.13;31.25;;;4.90;99.90;;;;;;2056802;28;20054;-67
2022/11/30 00:20:39;;;;;;;52.92;30.60;;;4.90;99.90;;;;;;2056749;28;20077;-68
2022/11/30 00:21:40;;;;;;;57.78;33.33;;;4.90;99.90;;;;;;2055893;28;20438;-68
2022/11/30 00:22:41;;;;;;;55.78;32.45;;;4.90;99.90;;;;;;2056074;28;20490;-67
2022/11/30 00:23:44;;;;;;;54.15;31.70;;;4.90;99.90;;;;;;2056647;28;20018;-67
2022/11/30 00:24:44;;;;;;;58.17;32.50;;;4.90;99.90;;;;;;2055761;28;20042;-67
2022/11/30 00:25:45;;;;;;;56.40;32.58;;;4.90;99.90;;;;;;2056340;28;20513;-67
2022/11/30 00:26:46;;;;;;;58.05;33.33;;;4.90;99.90;;;;;;2056157;28;20137;-67
2022/11/30 00:27:46;;;;;;;59.38;34.05;;;4.90;99.90;;;;;;2056159;28;20026;-67
2022/11/30 00:28:49;;;;;;;58.33;33.30;;;4.90;99.90;;;;;;2056324;28;20031;-67
2022/11/30 00:29:50;;;;;;;55.80;32.45;;;4.90;99.90;;;;;;2056077;28;20035;-67
2022/11/30 00:31:01;;;;;;;53.55;31.73;;;4.90;99.90;;;;;;2056206;28;20035;-68
2022/11/30 00:32:02;;;;;;;61.83;35.03;;;4.90;99.90;;;;;;2056871;28;20101;-67
2022/11/30 00:33:03;;;;;;;58.20;32.85;;;4.90;99.90;;;;;;2056384;28;20039;-67
2022/11/30 00:34:03;;;;;;;54.50;31.63;;;4.90;99.90;;;;;;2055122;28;20552;-67
2022/11/30 00:35:04;;;;;;;53.60;31.55;;;4.90;99.90;;;;;;2056564;28;20808;-67
2022/11/30 00:36:11;;;;;;;57.75;33.17;;;4.90;99.90;;;;;;2056489;28;20466;-67
2022/11/30 00:37:11;;;;;;;58.25;33.50;;;4.90;99.90;;;;;;2063990;28;20030;-67
2022/11/30 00:38:12;;;;;;;52.55;31.38;;;4.80;99.90;;;;;;2063975;28;20061;-67
2022/11/30 00:39:12;;;;;;;54.72;32.20;;;4.90;99.90;;;;;;2056462;28;20114;-67
2022/11/30 00:40:13;;;;;;;54.13;31.95;;;4.90;99.90;;;;;;2056594;28;20101;-67
2022/11/30 00:41:17;;;;;;;56.97;32.05;;;4.90;99.90;;;;;;2056477;28;20075;-67
2022/11/30 00:42:18;;;;;;;56.00;32.42;;;4.90;99.90;;;;;;2055634;28;20422;-67
2022/11/30 00:43:19;;;;;;;52.33;30.88;;;4.90;99.90;;;;;;2055915;28;20031;-67
2022/11/30 00:44:20;;;;;;;56.97;31.90;;;4.90;99.90;;;;;;2052066;28;20019;-67
2022/11/30 00:45:20;;;;;;;54.60;30.48;;;4.90;99.90;;;;;;2048727;29;20043;-67
2022/11/30 00:46:21;;;;;;;54.95;32.38;;;4.90;99.90;;;;;;2048773;28;20038;-67
2022/11/30 00:47:22;;;;;;;56.90;32.97;;;4.90;99.90;;;;;;2048646;29;20118;-67
2022/11/30 00:48:24;;;;;;;54.63;33.13;;;4.90;99.90;;;;;;2048339;28;20027;-67
2022/11/30 00:49:24;;;;;;;55.58;32.40;;;4.90;99.90;;;;;;2048498;29;20031;-67
2022/11/30 00:50:26;;;;;;;54.45;31.33;;;4.90;99.90;;;;;;2048465;28;20042;-68
2022/11/30 00:51:27;;;;;;;52.22;31.02;;;4.90;99.90;;;;;;2047849;28;20421;-67
2022/11/30 00:52:29;;;;;;;53.63;31.50;;;4.90;99.90;;;;;;2047999;29;20506;-68
2022/11/30 00:53:29;;;;;;;53.88;31.50;;;4.90;99.90;;;;;;2048537;29;20019;-68
2022/11/30 00:54:30;;;;;;;55.17;32.13;;;4.90;99.90;;;;;;2048385;28;20070;-68
2022/11/30 00:55:32;;;;;;;55.75;31.20;;;4.90;99.90;;;;;;2058572;28;20019;-67
2022/11/30 00:56:32;;;;;;;59.17;33.50;;;4.90;99.90;;;;;;2056375;28;20027;-67
2022/11/30 00:57:33;;;;;;;57.13;32.53;;;4.90;99.90;;;;;;2056452;28;20023;-67
2022/11/30 00:58:34;;;;;;;54.35;31.20;;;4.90;99.90;;;;;;2056653;28;20587;-67
2022/11/30 00:59:34;;;;;;;52.03;31.27;;;4.90;99.90;;;;;;2056569;28;20026;-68
2022/11/30 01:00:35;;;;;;;56.58;32.97;;;4.90;99.90;;;;;;2056326;28;20381;-67
2022/11/30 01:01:36;;;;;;;54.78;32.25;;;4.90;99.90;;;;;;2056349;28;20066;-67
2022/11/30 01:02:37;;;;;;;56.80;32.22;;;4.90;99.90;;;;;;2055863;28;20055;-67
2022/11/30 01:03:38;;;;;;;55.60;31.83;;;4.90;99.90;;;;;;2055912;28;20030;-67
2022/11/30 01:04:38;;;;;;;55.10;32.08;;;4.80;99.90;;;;;;2063943;28;20150;-67
2022/11/30 01:05:42;;;;;;;52.80;30.10;;;4.90;99.90;;;;;;2055858;28;20425;-68
2022/11/30 01:06:42;;;;;;;52.67;31.55;;;4.90;99.90;;;;;;2055921;28;20491;-67
2022/11/30 01:07:43;;;;;;;54.35;31.58;;;4.90;99.90;;;;;;2056721;28;20085;-68
2022/11/30 01:08:44;;;;;;;53.55;30.65;;;4.90;99.90;;;;;;2056437;28;20027;-68
2022/11/30 01:09:44;;;;;;;52.50;31.42;;;4.90;99.90;;;;;;2056460;28;20026;-68
2022/11/30 01:10:48;;;;;;;52.50;30.75;;;4.90;99.90;;;;;;2056672;28;20105;-68
2022/11/30 01:11:49;;;;;;;49.80;29.98;;;4.90;99.90;;;;;;2055375;28;20509;-68
2022/11/30 01:12:49;;;;;;;49.25;29.77;;;4.90;99.90;;;;;;2055936;28;20046;-68
2022/11/30 01:13:51;;;;;;;51.15;30.40;;;4.90;99.90;;;;;;2055647;28;20536;-68
2022/11/30 01:14:52;;;;;;;51.20;30.02;;;4.90;99.90;;;;;;2055509;28;20031;-68
2022/11/30 01:15:52;;;;;;;45.55;28.23;;;4.90;99.90;;;;;;2055560;28;20497;-68
2022/11/30 01:16:53;;;;;;;49.08;28.75;;;4.90;99.90;;;;;;2055621;28;20042;-68
2022/11/30 01:17:54;;;;;;;51.22;29.58;;;4.90;99.90;;;;;;2055694;28;20044;-68
2022/11/30 01:18:55;;;;;;;47.80;28.92;;;4.90;99.90;;;;;;2064775;28;20030;-68
2022/11/30 01:19:56;;;;;;;48.88;28.70;;;4.90;99.90;;;;;;2056530;28;20038;-70
2022/11/30 01:20:57;;;;;;;48.15;28.27;;;4.90;99.90;;;;;;2056163;28;20022;-70
2022/11/30 01:21:58;;;;;;;50.90;29.75;;;4.90;99.90;;;;;;2063490;28;20456;-67
2022/11/30 01:22:59;;;;;;;52.92;31.15;;;4.90;99.90;;;;;;2063565;28;20469;-69
2022/11/30 01:23:59;;;;;;;51.63;30.77;;;4.90;99.90;;;;;;2056408;28;20035;-68
2022/11/30 01:25:02;;;;;;;47.00;28.38;;;4.90;99.90;;;;;;2056084;28;20061;-68
2022/11/30 01:26:02;;;;;;;48.45;28.92;;;4.90;99.90;;;;;;2055121;28;20039;-68
2022/11/30 01:27:03;;;;;;;48.08;28.55;;;4.90;99.90;;;;;;2055716;28;20033;-67
2022/11/30 01:28:04;;;;;;;46.13;28.45;;;4.90;99.90;;;;;;2047671;28;20390;-68
2022/11/30 01:29:05;;;;;;;47.15;29.15;;;4.90;99.90;;;;;;2047861;28;20568;-68
2022/11/30 01:30:07;;;;;;;47.05;28.75;;;4.90;99.90;;;;;;2055589;28;20102;-68
2022/11/30 01:31:10;;;;;;;46.47;28.50;;;4.90;99.90;;;;;;2055757;28;20098;-67
2022/11/30 01:32:10;;;;;;;47.03;29.17;;;4.90;99.90;;;;;;2056253;28;20030;-68
2022/11/30 01:33:11;;;;;;;47.00;28.52;;;4.90;99.90;;;;;;2056328;28;20500;-68
2022/11/30 01:34:12;;;;;;;47.25;28.15;;;4.90;99.90;;;;;;2055952;28;20038;-68
2022/11/30 01:35:12;;;;;;;48.10;28.55;;;4.90;99.90;;;;;;2056415;28;20031;-68
2022/11/30 01:36:16;;;;;;;50.80;30.55;;;4.90;99.90;;;;;;2056007;28;20477;-68
2022/11/30 01:37:16;;;;;;;51.67;30.45;;;4.90;99.90;;;;;;2056270;28;20030;-68
2022/11/30 01:38:17;;;;;;;48.75;29.42;;;4.90;99.90;;;;;;2055507;28;20054;-69
2022/11/30 01:39:18;;;;;;;46.67;28.00;;;4.90;99.90;;;;;;2055626;28;20027;-68
2022/11/30 01:40:18;;;;;;;45.83;28.05;;;4.80;99.90;;;;;;2056171;28;20648;-70
2022/11/30 01:41:28;;;;;;;46.15;27.83;;;4.80;99.90;;;;;;2055464;28;20034;-67
2022/11/30 01:42:29;;;;;;;46.78;28.27;;;4.80;99.90;;;;;;2055732;28;20628;-68
2022/11/30 01:43:40;;;;;;;45.40;27.55;;;4.80;99.90;;;;;;2056000;28;20038;-68
2022/11/30 01:44:49;;;;;;;48.85;28.65;;;4.80;99.90;;;;;;2055136;28;20046;-68
2022/11/30 01:45:50;;;;;;;47.95;28.40;;;4.80;99.90;;;;;;2054624;28;20117;-68
2022/11/30 01:47:08;;;;;;;48.80;29.95;;;4.80;99.90;;;;;;2047548;28;20039;-68
2022/11/30 01:48:09;;;;;;;48.55;28.42;;;4.80;99.90;;;;;;2047649;28;20050;-68
2022/11/30 01:49:10;;;;;;;48.72;30.20;;;4.80;99.90;;;;;;2048299;28;20458;-68
2022/11/30 01:50:28;;;;;;;47.15;28.55;;;4.80;99.90;;;;;;2048081;28;20458;-67
2022/11/30 01:51:39;;;;;;;49.63;29.45;;;4.80;99.90;;;;;;2053300;28;20516;-71
2022/11/30 01:52:44;;;;;;;46.65;28.85;;;4.80;99.90;;;;;;2055863;28;20030;-68
2022/11/30 01:53:45;;;;;;;49.65;29.58;;;4.80;99.90;;;;;;2055243;28;20034;-68
2022/11/30 01:55:02;;;;;;;49.80;29.80;;;4.80;99.90;;;;;;2055441;28;20047;-68
2022/11/30 01:56:03;;;;;;;47.30;28.50;;;4.80;99.90;;;;;;2055823;28;20114;-68
2022/11/30 01:57:12;;;;;;;46.60;28.55;;;4.80;99.90;;;;;;2056023;28;20485;-68
2022/11/30 01:58:21;;;;;;;45.40;28.15;;;4.80;99.90;;;;;;2056072;28;20825;-68
2022/11/30 01:59:24;;;;;;;47.88;28.70;;;4.80;99.90;;;;;;2056025;28;20455;-68
2022/11/30 02:00:24;;;;;;;48.40;28.75;;;4.90;99.90;;;;;;2055313;28;20031;-68
2022/11/30 02:01:25;;;;;;;47.38;27.83;;;4.80;99.90;;;;;;2055183;28;20481;-68
2022/11/30 02:02:36;;;;;;;47.20;28.02;;;4.80;99.90;;;;;;2063030;28;20145;-68
2022/11/30 02:03:59;;;;;;;47.08;28.25;;;4.80;99.90;;;;;;2055829;28;20026;-68
2022/11/30 02:05:00;;;;;;;47.55;27.92;;;4.80;99.90;;;;;;2063153;28;20400;-69
2022/11/30 02:06:00;;;;;;;45.97;28.13;;;4.80;99.90;;;;;;2063283;28;20105;-68
2022/11/30 02:07:03;;;;;;;45.85;27.42;;;4.80;99.90;;;;;;2055837;28;20386;-68
2022/11/30 02:08:06;;;;;;;47.40;28.70;;;4.80;99.90;;;;;;2056055;28;20023;-67
2022/11/30 02:09:07;;;;;;;46.05;28.23;;;4.80;99.90;;;;;;2055228;28;20034;-67
2022/11/30 02:10:14;;;;;;;51.30;30.27;;;4.80;99.90;;;;;;2055231;28;20043;-68
2022/11/30 02:11:15;;;;;;;49.42;29.73;;;4.80;99.90;;;;;;2055600;28;20034;-67
2022/11/30 02:12:33;;;;;;;51.22;30.95;;;4.80;99.90;;;;;;2054864;28;20030;-67
2022/11/30 02:13:55;;;;;;;50.45;29.60;;;4.80;99.90;;;;;;2055393;28;20101;-67
2022/11/30 02:15:00;;;;;;;51.67;29.65;;;4.80;99.90;;;;;;2055700;28;20587;-67
2022/11/30 02:16:18;;;;;;;49.05;28.98;;;4.80;99.90;;;;;;2055907;28;20031;-67
2022/11/30 02:18:02;;;;;;;50.03;29.42;;;4.80;99.90;;;;;;2055295;28;20097;-68
2022/11/30 02:19:12;;;;;;;48.35;28.95;;;4.80;99.90;;;;;;2055704;28;20110;-68
2022/11/30 02:20:29;;;;;;;49.17;29.90;;;4.80;99.90;;;;;;2055857;28;20093;-68
2022/11/30 02:21:44;;;;;;;51.75;29.08;;;4.70;99.90;;;;;;2055573;28;20540;-67
2022/11/30 02:23:23;;;;;;;47.30;27.85;;;4.70;99.90;;;;;;2055857;28;20126;-67
2022/11/30 02:24:41;;;;;;;45.70;27.90;;;4.70;99.90;;;;;;2062278;28;20046;-68
2022/11/30 02:25:50;;;;;;;48.45;28.20;;;4.70;99.90;;;;;;2055239;28;20083;-68
2022/11/30 02:27:00;;;;;;;48.95;28.50;;;4.70;99.90;;;;;;2055392;28;20029;-68
2022/11/30 02:28:16;;;;;;;49.90;29.08;;;4.60;99.90;;;;;;2056014;28;20437;-68
2022/11/30 02:29:28;;;;;;;49.28;28.83;;;4.70;99.90;;;;;;2063179;28;20511;-68
2022/11/30 02:30:32;;;;;;;52.17;30.25;;;4.60;99.90;;;;;;2062337;28;20628;-68
2022/11/30 02:31:57;;;;;;;48.03;28.73;;;4.60;99.90;;;;;;2056033;28;20047;-68
2022/11/30 02:33:00;;;;;;;52.33;29.65;;;4.60;99.90;;;;;;2056205;28;20485;-68
2022/11/30 02:34:03;;;;;;;48.70;29.63;;;4.60;99.90;;;;;;2055858;28;20050;-68
2022/11/30 02:35:06;;;;;;;47.40;28.95;;;4.60;99.90;;;;;;2055435;28;20457;-67
2022/11/30 02:36:08;;;;;;;49.72;29.25;;;4.60;99.90;;;;;;2055235;28;20031;-67
2022/11/30 02:37:12;;;;;;;47.90;29.02;;;4.60;99.90;;;;;;2055064;28;20027;-67
2022/11/30 02:38:13;;;;;;;49.58;29.88;;;4.60;99.90;;;;;;2055062;28;20034;-67
2022/11/30 02:39:14;;;;;;;49.35;29.85;;;4.60;99.90;;;;;;2055618;28;20041;-67
2022/11/30 02:40:17;;;;;;;48.58;29.80;;;4.60;99.90;;;;;;2055592;28;20496;-68
2022/11/30 02:41:18;;;;;;;51.50;29.90;;;4.60;99.90;;;;;;2055757;28;20019;-67
2022/11/30 02:42:18;;;;;;;47.83;28.63;;;4.60;99.90;;;;;;2055364;28;20031;-69
2022/11/30 02:43:21;;;;;;;47.75;27.95;;;4.60;99.90;;;;;;2055613;28;20027;-67
2022/11/30 02:44:23;;;;;;;46.78;28.83;;;4.60;99.90;;;;;;2050770;28;20039;-69
2022/11/30 02:48:09;;;;;;;48.05;28.23;;;4.60;99.90;;;;;;2053512;28;20050;-67
2022/11/30 02:49:42;;;;;;;48.80;28.70;;;4.60;99.90;;;;;;2055744;28;20070;-67
2022/11/30 02:50:58;;;;;;;51.97;29.60;;;4.50;99.90;;;;;;2054723;28;20034;-67
2022/11/30 02:52:00;;;;;;;49.72;28.90;;;4.50;99.90;;;;;;2054748;28;20035;-67
2022/11/30 02:53:01;;;;;;;48.75;28.95;;;4.50;99.90;;;;;;2055369;28;20093;-68
2022/11/30 02:54:02;;;;;;;47.80;29.25;;;4.50;99.90;;;;;;2055354;28;20030;-67
2022/11/30 02:55:06;;;;;;;52.10;31.23;;;4.50;99.90;;;;;;2055542;28;20039;-67
2022/11/30 02:56:07;;;;;;;52.58;30.73;;;4.50;99.90;;;;;;2054706;28;20501;-67
2022/11/30 02:57:08;;;;;;;49.15;29.95;;;4.50;99.90;;;;;;2054797;28;20141;-67
2022/11/30 02:58:10;;;;;;;47.45;29.13;;;4.50;99.90;;;;;;2055561;28;20073;-67
2022/11/30 02:59:11;;;;;;;48.97;28.98;;;4.50;99.90;;;;;;2056203;28;20037;-67
2022/11/30 03:00:13;;;;;;;46.65;28.55;;;4.50;99.90;;;;;;2056298;28;20038;-67
2022/11/30 03:01:13;;;;;;;47.60;28.95;;;4.50;99.90;;;;;;2057203;28;20078;-67
2022/11/30 03:02:14;;;;;;;45.90;28.08;;;4.50;99.90;;;;;;2056503;28;20026;-67
2022/11/30 03:03:15;;;;;;;47.60;28.30;;;4.50;99.90;;;;;;2055799;28;20039;-67
2022/11/30 03:04:15;;;;;;;46.45;27.92;;;4.50;99.90;;;;;;2057499;28;20389;-67
2022/11/30 03:05:16;;;;;;;45.92;28.73;;;4.50;99.90;;;;;;2057368;28;20114;-67
2022/11/30 03:06:17;;;;;;;49.03;29.13;;;4.50;99.90;;;;;;2058065;28;20113;-67
2022/11/30 03:07:17;;;;;;;48.28;30.08;;;4.50;99.90;;;;;;2058454;28;20026;-68
2022/11/30 03:08:18;;;;;;;49.70;29.75;;;4.50;99.90;;;;;;2056404;28;20073;-68
2022/11/30 03:09:19;;;;;;;48.60;28.98;;;4.50;99.90;;;;;;2056695;28;20110;-68
2022/11/30 03:10:20;;;;;;;54.78;32.13;;;4.50;99.90;;;;;;2056851;28;20031;-68
2022/11/30 03:11:20;;;;;;;49.53;29.98;;;4.50;99.90;;;;;;2056360;28;20045;-67
2022/11/30 03:12:21;;;;;;;51.70;30.75;;;4.40;99.90;;;;;;2056934;28;20026;-68
2022/11/30 03:13:22;;;;;;;49.03;29.33;;;4.40;99.90;;;;;;2058883;28;20038;-68
2022/11/30 03:14:23;;;;;;;50.63;30.55;;;4.50;99.90;;;;;;2057374;28;20027;-68
2022/11/30 03:15:24;;;;;;;50.03;30.27;;;4.50;99.90;;;;;;2057321;28;20421;-68
2022/11/30 03:16:24;;;;;;;49.58;29.50;;;4.40;99.90;;;;;;2056834;28;20054;-68
2022/11/30 03:17:25;;;;;;;48.40;29.30;;;4.40;99.90;;;;;;2056534;28;20031;-68
2022/11/30 03:18:26;;;;;;;51.00;29.88;;;4.40;99.90;;;;;;2056020;28;20026;-67
2022/11/30 03:19:26;;;;;;;48.78;29.48;;;4.40;99.90;;;;;;2056028;28;20564;-68
2022/11/30 03:20:27;;;;;;;51.65;30.60;;;4.40;99.90;;;;;;2056340;28;20023;-68
2022/11/30 03:21:28;;;;;;;49.50;29.60;;;4.40;99.90;;;;;;2056858;28;20112;-68
2022/11/30 03:22:29;;;;;;;47.70;29.48;;;4.40;99.90;;;;;;2057104;28;20118;-68
2022/11/30 03:23:29;;;;;;;48.75;29.25;;;4.30;99.90;;;;;;2055713;28;20111;-68
2022/11/30 03:24:30;;;;;;;52.13;30.35;;;4.40;99.90;;;;;;2055430;28;20781;-68
2022/11/30 03:25:31;;;;;;;50.88;30.55;;;4.30;99.90;;;;;;2054972;28;20029;-68
2022/11/30 03:26:32;;;;;;;51.78;31.38;;;4.30;99.90;;;;;;2055149;28;20118;-68
2022/11/30 03:27:32;;;;;;;51.88;31.50;;;4.30;99.90;;;;;;2055798;28;20669;-68
2022/11/30 03:28:35;;;;;;;53.00;31.08;;;4.30;99.90;;;;;;2055861;28;20035;-68
2022/11/30 03:29:35;;;;;;;51.85;30.88;;;4.30;99.90;;;;;;2055128;28;20583;-68
2022/11/30 03:30:36;;;;;;;50.58;29.95;;;4.20;99.90;;;;;;2055182;28;20015;-68
2022/11/30 03:31:37;;;;;;;48.97;29.08;;;4.30;99.90;;;;;;2055058;28;20894;-68
2022/11/30 03:32:37;;;;;;;49.42;28.85;;;4.30;99.90;;;;;;2055061;28;20023;-68
2022/11/30 03:33:40;;;;;;;46.58;28.02;;;4.20;99.90;;;;;;2055447;28;20093;-67
2022/11/30 03:34:41;;;;;;;47.95;28.15;;;4.20;99.90;;;;;;2054594;28;20035;-67
2022/11/30 03:35:41;;;;;;;44.97;27.33;;;4.20;99.90;;;;;;2054568;28;20035;-69
2022/11/30 03:36:42;;;;;;;46.75;28.27;;;4.20;99.90;;;;;;2055286;28;20080;-68
2022/11/30 03:37:43;;;;;;;54.05;31.58;;;4.20;99.90;;;;;;2055305;28;20030;-68
2022/11/30 03:38:43;;;;;;;52.67;31.13;;;4.20;99.90;;;;;;2055465;28;20019;-68
2022/11/30 03:39:44;;;;;;;52.05;31.35;;;4.20;99.90;;;;;;2055322;28;20018;-68
2022/11/30 03:40:45;;;;;;;51.75;30.42;;;4.10;99.90;;;;;;2055192;28;20366;-68
2022/11/30 03:41:45;;;;;;;50.33;29.95;;;4.10;99.90;;;;;;2055180;28;20023;-68
2022/11/30 03:42:46;;;;;;;50.85;30.08;;;4.10;99.90;;;;;;2055072;28;20023;-68
2022/11/30 03:43:47;;;;;;;52.20;29.65;;;4.10;99.90;;;;;;2058949;28;20037;-68
2022/11/30 03:44:47;;;;;;;53.08;30.75;;;4.10;99.90;;;;;;2055187;28;20069;-68
2022/11/30 03:45:48;;;;;;;51.13;30.25;;;4.00;99.90;;;;;;2054905;28;20073;-68
2022/11/30 03:46:49;;;;;;;53.63;31.67;;;4.00;99.90;;;;;;2055364;28;20081;-68
2022/11/30 03:47:49;;;;;;;53.72;30.67;;;4.00;99.90;;;;;;2055355;28;20103;-68
2022/11/30 03:48:50;;;;;;;50.17;30.13;;;4.00;99.90;;;;;;2054697;28;20040;-68
2022/11/30 03:49:51;;;;;;;53.10;30.48;;;4.00;99.90;;;;;;2055026;28;20037;-67
2022/11/30 03:50:51;;;;;;;50.78;29.92;;;4.00;99.90;;;;;;2055066;28;20854;-68
2022/11/30 03:51:52;;;;;;;52.35;31.20;;;4.00;99.90;;;;;;2055052;28;20400;-68
2022/11/30 03:52:53;;;;;;;54.78;31.23;;;4.00;99.90;;;;;;2055147;28;20034;-68
2022/11/30 03:53:53;;;;;;;55.38;31.58;;;4.00;99.90;;;;;;2054961;28;20062;-67
2022/11/30 03:54:54;;;;;;;55.70;32.08;;;3.90;99.90;;;;;;2054976;28;20417;-68
2022/11/30 03:55:58;;;;;;;54.38;32.22;;;3.90;99.90;;;;;;2054853;28;20038;-68
2022/11/30 03:56:58;;;;;;;53.58;31.48;;;4.00;99.90;;;;;;2055311;28;20033;-68
2022/11/30 03:57:59;;;;;;;52.63;30.20;;;3.90;99.90;;;;;;2055256;28;20023;-68
2022/11/30 03:59:00;;;;;;;53.67;30.60;;;3.90;99.90;;;;;;2055324;28;20719;-68
2022/11/30 04:00:00;;;;;;;50.08;29.73;;;3.90;99.90;;;;;;2054401;28;20134;-68
2022/11/30 04:01:06;;;;;;;51.03;30.30;;;3.90;99.90;;;;;;2054511;28;20493;-68
2022/11/30 04:02:07;;;;;;;50.40;29.42;;;3.90;99.90;;;;;;2055283;28;20023;-68
2022/11/30 04:03:07;;;;;;;50.67;30.00;;;3.90;99.90;;;;;;2055120;28;20049;-68
2022/11/30 04:04:09;;;;;;;51.08;30.35;;;3.90;99.90;;;;;;2054903;28;20537;-68
2022/11/30 04:05:10;;;;;;;50.40;29.92;;;3.90;99.90;;;;;;2055002;28;20456;-68
2022/11/30 04:06:11;;;;;;;50.38;30.08;;;3.90;99.90;;;;;;2054829;28;20027;-67
2022/11/30 04:07:12;;;;;;;49.65;28.50;;;3.90;99.90;;;;;;2054356;28;20033;-69
2022/11/30 04:08:13;;;;;;;48.80;29.02;;;3.90;99.90;;;;;;2054598;28;20457;-68
2022/11/30 04:09:14;;;;;;;46.13;28.15;;;3.90;99.90;;;;;;2046437;28;20121;-68
2022/11/30 04:10:18;;;;;;;48.40;28.05;;;3.90;99.90;;;;;;2038642;29;20036;-69
2022/11/30 04:11:28;;;;;;;45.65;27.48;;;3.90;99.90;;;;;;2032305;29;20048;-68
2022/11/30 04:12:32;;;;;;;49.47;28.75;;;3.90;99.90;;;;;;2046739;29;20793;-69
2022/11/30 04:13:38;;;;;;;46.78;27.92;;;3.90;99.90;;;;;;2054911;28;20042;-69
2022/11/30 04:14:54;;;;;;;48.70;28.02;;;3.90;99.90;;;;;;2044770;28;20082;-68
2022/11/30 04:15:58;;;;;;;48.28;29.08;;;3.90;99.90;;;;;;2047259;28;20035;-69
2022/11/30 04:17:07;;;;;;;48.42;28.55;;;3.80;99.90;;;;;;2045793;28;20054;-69
2022/11/30 04:18:15;;;;;;;51.10;28.05;;;3.80;99.90;;;;;;2039691;29;20032;-69
2022/11/30 04:19:46;;;;;;;48.22;27.85;;;3.80;99.90;;;;;;2046722;28;20041;-70
2022/11/30 04:20:57;;;;;;;50.08;28.63;;;3.80;99.90;;;;;;2038634;29;20031;-70
2022/11/30 04:22:35;;;;;;;54.72;31.05;;;3.70;99.90;;;;;;2046947;28;20030;-69
2022/11/30 04:23:41;;;;;;;52.17;29.48;;;3.70;99.90;;;;;;2054242;28;20078;-68
2022/11/30 04:24:41;;;;;;;55.05;31.27;;;3.70;99.90;;;;;;2054207;28;20456;-68
2022/11/30 04:25:42;;;;;;;52.15;29.83;;;3.60;99.90;;;;;;2054251;28;20033;-68
2022/11/30 04:26:44;;;;;;;55.20;31.67;;;3.60;99.90;;;;;;2054458;28;20045;-68
2022/11/30 04:27:46;;;;;;;55.45;32.65;;;3.60;99.90;;;;;;2055080;28;20118;-68
2022/11/30 04:28:47;;;;;;;57.38;32.80;;;3.60;99.90;;;;;;2054392;28;20027;-68
2022/11/30 04:29:48;;;;;;;55.35;31.80;;;3.60;99.90;;;;;;2054515;28;20564;-68
2022/11/30 04:30:48;;;;;;;53.58;30.60;;;3.60;99.90;;;;;;2055204;28;20027;-68
2022/11/30 04:31:49;;;;;;;54.58;30.85;;;3.60;99.90;;;;;;2055134;28;20173;-69
2022/11/30 04:32:50;;;;;;;53.67;29.92;;;3.60;99.90;;;;;;2055238;28;20035;-68
2022/11/30 04:33:53;;;;;;;51.33;30.50;;;3.60;99.90;;;;;;2055284;28;20034;-68
2022/11/30 04:34:54;;;;;;;54.85;31.30;;;3.50;99.90;;;;;;2054221;28;20057;-68
2022/11/30 04:36:00;;;;;;;54.00;31.42;;;3.50;99.90;;;;;;2046360;29;20062;-68
2022/11/30 04:37:00;;;;;;;54.78;31.02;;;3.50;99.90;;;;;;2047590;28;20082;-68
2022/11/30 04:38:01;;;;;;;58.00;32.92;;;3.50;99.90;;;;;;2046547;29;20055;-68
2022/11/30 04:39:02;;;;;;;57.95;33.17;;;3.50;99.90;;;;;;2054416;28;20097;-68
2022/11/30 04:40:06;;;;;;;61.38;34.28;;;3.50;99.90;;;;;;2054941;28;20038;-68
2022/11/30 04:41:08;;;;;;;58.97;34.47;;;3.60;99.90;;;;;;2055319;28;20023;-68
2022/11/30 04:42:08;;;;;;;59.78;33.42;;;3.50;99.90;;;;;;2055146;28;20030;-68
2022/11/30 04:43:10;;;;;;;61.00;33.75;;;3.50;99.90;;;;;;2055213;28;20035;-68
2022/11/30 04:44:11;;;;;;;64.10;35.38;;;3.50;99.90;;;;;;2054814;28;20051;-69
2022/11/30 04:45:12;;;;;;;62.72;35.35;;;3.50;99.90;;;;;;2055113;28;20716;-68
2022/11/30 04:46:13;;;;;;;61.75;34.60;;;3.50;99.90;;;;;;2054932;28;20039;-68
2022/11/30 04:47:14;;;;;;;64.82;34.78;;;3.50;99.90;;;;;;2054513;28;20027;-68
2022/11/30 04:48:16;;;;;;;63.97;34.58;;;3.50;99.90;;;;;;2054156;28;20034;-68
2022/11/30 04:49:17;;;;;;;58.45;33.53;;;3.50;99.90;;;;;;2055427;28;20045;-68
2022/11/30 04:50:18;;;;;;;61.22;34.30;;;3.50;99.90;;;;;;2056279;28;20465;-68
2022/11/30 04:51:18;;;;;;;61.05;33.33;;;3.50;99.90;;;;;;2056247;28;20150;-68
2022/11/30 04:52:19;;;;;;;61.00;33.28;;;3.50;99.90;;;;;;2063217;28;20062;-68
2022/11/30 04:53:19;;;;;;;55.95;31.67;;;3.50;99.90;;;;;;2055497;28;20043;-68
2022/11/30 04:54:20;;;;;;;57.42;33.17;;;3.50;99.90;;;;;;2055292;28;20144;-68
2022/11/30 04:55:21;;;;;;;61.05;33.88;;;3.50;99.90;;;;;;2063682;28;20034;-68
2022/11/30 04:56:21;;;;;;;61.42;34.60;;;3.50;99.90;;;;;;2063946;28;20034;-68
2022/11/30 04:57:23;;;;;;;60.88;33.70;;;3.50;99.90;;;;;;2063710;28;20030;-70
2022/11/30 04:58:23;;;;;;;62.20;33.95;;;3.50;99.90;;;;;;2056373;28;20026;-68
2022/11/30 04:59:24;;;;;;;55.92;32.33;;;3.50;99.90;;;;;;2055127;28;20454;-68
2022/11/30 05:00:25;;;;;;;59.55;34.42;;;3.50;99.90;;;;;;2062105;28;20029;-68
2022/11/30 05:01:25;;;;;;;63.85;34.85;;;3.50;99.90;;;;;;2057712;28;20023;-68
2022/11/30 05:02:29;;;;;;;60.67;33.53;;;3.50;99.90;;;;;;2057517;28;20026;-68
2022/11/30 05:03:30;;;;;;;62.10;33.70;;;3.50;99.90;;;;;;2057460;28;20026;-67
2022/11/30 05:04:30;;;;;;;61.75;34.78;;;3.50;99.90;;;;;;2057138;28;20425;-68
2022/11/30 05:05:31;;;;;;;58.80;34.10;;;3.50;99.90;;;;;;2048633;28;20514;-68
2022/11/30 05:06:32;;;;;;;59.17;33.20;;;3.50;99.90;;;;;;2056062;28;20505;-68
2022/11/30 05:07:32;;;;;;;58.95;33.65;;;3.50;99.90;;;;;;2057254;28;20557;-68
2022/11/30 05:08:33;;;;;;;59.30;33.63;;;3.50;99.90;;;;;;2055757;28;20526;-68
2022/11/30 05:09:34;;;;;;;59.08;33.45;;;3.50;99.90;;;;;;2055751;28;20441;-67
2022/11/30 05:10:35;;;;;;;62.47;34.35;;;3.50;99.90;;;;;;2056958;28;20023;-67
2022/11/30 05:11:35;;;;;;;63.72;34.88;;;3.50;99.90;;;;;;2057537;28;20039;-67
2022/11/30 05:12:36;;;;;;;62.92;34.35;;;3.50;99.90;;;;;;2057265;28;20023;-68
2022/11/30 05:13:37;;;;;;;65.05;35.45;;;3.50;99.90;;;;;;2057170;28;20019;-68
2022/11/30 05:14:37;;;;;;;65.63;36.25;;;3.50;99.90;;;;;;2056878;28;20054;-67
2022/11/30 05:15:38;;;;;;;60.15;34.75;;;3.50;99.90;;;;;;2056813;28;20030;-67
2022/11/30 05:16:39;;;;;;;63.92;35.78;;;3.50;99.90;;;;;;2057054;28;20019;-68
2022/11/30 05:17:39;;;;;;;63.80;34.80;;;3.50;99.90;;;;;;2057172;28;20058;-68
2022/11/30 05:18:40;;;;;;;61.95;34.92;;;3.50;99.90;;;;;;2064560;28;20476;-68
2022/11/30 05:19:41;;;;;;;58.53;33.58;;;3.50;99.90;;;;;;2064267;28;20062;-68
2022/11/30 05:20:47;;;;;;;59.40;33.72;;;3.50;99.90;;;;;;2064058;28;20029;-68
2022/11/30 05:21:47;;;;;;;56.72;32.75;;;3.50;99.90;;;;;;2064376;28;20117;-68
2022/11/30 05:22:48;;;;;;;62.70;34.45;;;3.50;99.90;;;;;;2064327;28;20029;-68
2022/11/30 05:23:50;;;;;;;65.55;35.38;;;3.60;99.90;;;;;;2064285;28;20587;-68
2022/11/30 05:24:51;;;;;;;61.13;34.38;;;3.60;99.90;;;;;;2064559;28;20053;-68
2022/11/30 05:25:51;;;;;;;59.13;33.90;;;3.60;99.90;;;;;;2064793;28;20378;-67